FLP Airport (Marion County Rgnl) Information

FAA: FLP - ICAO: KFLP

FLP Airport Location

State Arkansas
County Marion
City Flippin
FLP Airport is 1 mile north of Flippin, AR.
Latitude 36-17-27.2000N
Longitude 092-35-24.9000W
Elevation 719ft

KFLP Airport METARs

METAR KFLP 301656Z AUTO 00000KT 10SM CLR 16/06 A3014 RMK AO2 SLP204 T01560061
Altimeter 30.14"
Temperature 15.6°C (60.1°F)
Wind 0° at 0KT
Clouds Skies are clear.
Visibility 10.0mi
Time observed: 2021-11-30T16:56:00Z

FLP Airport Details

Status Operational
Activation October 1948
Ownership Public
Usage Public
Chart KANSAS CITY
ATC on-site No
Beacon schedule sunset-sunrise
Beacon color clear green

FLP Airport Contacts

Owner MARION COUNTY
Owner address BOX 545, YELLVILLE, AR 72687
Owner phone 870-449-6231
Manager JEFF D. BARKER
Manager address 3215 N NORTH HILLS BLVD, FAYETTEVILLE, AR 72703
Manager phone 479-463-7916

FLP Airport (Marion County Rgnl) Radio Frequencies

FLP (Airport) Radio Frequencies

UNICOM 123
Common traffic advisory frequency (CTAF) 123